Weather History for KIOB - December, 2012

Change the Weather History Date:

Tuesday, December 4, 2012

  Actual Average Record
Temperature  
Mean Temperature 53 °F -  
Max Temperature 64 °F 50 °F 64 °F (2013)
Min Temperature 42 °F 31 °F 30 °F (2014)
Degree Days  
Heating Degree Days 12    
Growing Degree Days 3 (Base 50)    
Moisture  
Dew Point 51 °F    
Average Humidity 81    
Maximum Humidity 100    
Minimum Humidity 67    
Precipitation  
Precipitation 0.00 in - - ()
Sea Level Pressure  
Sea Level Pressure 30.16 in    
Wind  
Wind Speed 8 mph ()    
Max Wind Speed 16 mph    
Max Gust Speed 24 mph    
Visibility 9.2 miles    
Events Rain    
Averages and records for this station are not official NWS values.
T = Trace of Precipitation, MM = Missing Value Source: Averaged Metar Reports

Daily Weather History Graph

Daily Weather History Graph

Search for Another Location

Airport or City:

Trip Planner

Search our weather history database for the weather conditions in past years. The results will help you decide how hot, cold, wet, or windy it might be!

Date:

Astronomy

Dec. 04, 2012 Rise Set
Actual Time 7:36 AM EST 5:16 PM EST
Civil Twilight 7:07 AM EST 5:45 PM EST
Nautical Twilight 6:34 AM EST 6:18 PM EST
Astronomical Twilight 6:02 AM EST 6:49 PM EST
Moon 10:58 PM EST (12/4) 11:33 AM EST (12/4)
Length of Visible Light 10h 37m
Length of Day
9h 39m
Waning Gibbous, 69% of the Moon is Illuminated
Dec 4
Waning Gibbous
Dec 6
Last Quarter
Dec 13
New
Dec 20
First Quarter
Dec 28
Full

Hourly Weather History & Observations

Time (EST) Temp. Windchill Dew Point Humidity Pressure Visibility Wind Dir Wind Speed Gust Speed Precip Events Conditions
12:15 AM 55.4 °F - 46.4 °F 72% 30.18 in 10.0 mi SW 9.2 mph - N/A   Clear
12:35 AM 55.4 °F - 46.4 °F 72% 30.18 in 10.0 mi SW 8.1 mph - N/A   Clear
12:55 AM 55.4 °F - 46.4 °F 72% 30.18 in 10.0 mi SW 8.1 mph - N/A   Clear
1:15 AM 55.4 °F - 46.4 °F 72% 30.18 in 10.0 mi SW 8.1 mph - N/A   Clear
1:35 AM 55.4 °F - 46.4 °F 72% 30.17 in 10.0 mi SW 8.1 mph - N/A   Mostly Cloudy
1:55 AM 55.4 °F - 46.4 °F 72% 30.18 in 10.0 mi SW 5.8 mph - N/A   Overcast
2:15 AM 55.4 °F - 46.4 °F 72% 30.18 in 10.0 mi SSW 9.2 mph - N/A   Overcast
2:35 AM 57.2 °F - 46.4 °F 67% 30.18 in 10.0 mi SW 6.9 mph - N/A   Mostly Cloudy
2:55 AM 55.4 °F - 46.4 °F 72% 30.18 in 10.0 mi SW 6.9 mph - N/A   Mostly Cloudy
3:15 AM 55.4 °F - 46.4 °F 72% 30.17 in 10.0 mi SSW 8.1 mph - N/A   Scattered Clouds
3:55 AM 55.4 °F - 46.4 °F 72% 30.17 in 10.0 mi SW 5.8 mph - N/A   Overcast
4:15 AM 55.4 °F - 48.2 °F 77% 30.16 in 10.0 mi SSW 6.9 mph - N/A   Mostly Cloudy
4:35 AM 55.4 °F - 48.2 °F 77% 30.16 in 10.0 mi SW 6.9 mph - N/A   Mostly Cloudy
4:55 AM 57.2 °F - 48.2 °F 72% 30.16 in 10.0 mi SW 6.9 mph - N/A   Mostly Cloudy
5:15 AM 57.2 °F - 48.2 °F 72% 30.16 in 10.0 mi SW 6.9 mph - N/A   Mostly Cloudy
5:35 AM 55.4 °F - 50.0 °F 82% 30.16 in 10.0 mi SSW 9.2 mph - N/A   Scattered Clouds
5:55 AM 55.4 °F - 50.0 °F 82% 30.16 in 10.0 mi SW 9.2 mph - N/A   Mostly Cloudy
6:15 AM 57.2 °F - 50.0 °F 77% 30.16 in 10.0 mi SW 8.1 mph - N/A   Overcast
6:35 AM 59.0 °F - 50.0 °F 72% 30.16 in 10.0 mi SW 6.9 mph - N/A   Overcast
6:55 AM 59.0 °F - 50.0 °F 72% 30.16 in 10.0 mi SW 8.1 mph - N/A   Overcast
7:15 AM 59.0 °F - 50.0 °F 72% 30.16 in 10.0 mi SW 9.2 mph - N/A   Overcast
7:35 AM 59.0 °F - 50.0 °F 72% 30.17 in 10.0 mi SW 8.1 mph - N/A   Overcast
7:55 AM 59.0 °F - 51.8 °F 77% 30.17 in 10.0 mi SW 8.1 mph - N/A   Overcast
8:15 AM 59.0 °F - 51.8 °F 77% 30.17 in 10.0 mi SW 10.4 mph - N/A   Overcast
8:35 AM 57.2 °F - 53.6 °F 88% 30.17 in 10.0 mi SW 11.5 mph 17.3 mph N/A Rain Light Rain
8:55 AM 57.2 °F - 53.6 °F 88% 30.17 in 10.0 mi SW 8.1 mph - N/A Rain Rain
9:15 AM 55.4 °F - 53.6 °F 94% 30.17 in 4.0 mi SW 12.7 mph - N/A Rain Heavy Rain
9:35 AM 57.2 °F - 55.4 °F 94% 30.18 in 10.0 mi SW 9.2 mph - N/A Rain Light Rain
9:55 AM 59.0 °F - 55.4 °F 88% 30.18 in 10.0 mi SW 11.5 mph 18.4 mph N/A Rain Light Rain
10:15 AM 59.0 °F - 55.4 °F 88% 30.18 in 3.0 mi SSW 9.2 mph 17.3 mph N/A Rain Heavy Rain
10:35 AM 59.0 °F - 55.4 °F 88% 30.18 in 10.0 mi SW 8.1 mph - N/A   Overcast
10:55 AM 60.8 °F - 55.4 °F 82% 30.17 in 10.0 mi SW 8.1 mph - N/A   Overcast
11:15 AM 60.8 °F - 55.4 °F 82% 30.17 in 10.0 mi WSW 11.5 mph 17.3 mph N/A   Overcast
11:35 AM 60.8 °F - 55.4 °F 82% 30.16 in 7.0 mi WSW 12.7 mph 21.9 mph N/A Rain Light Rain
11:55 AM 59.0 °F - 57.2 °F 94% 30.15 in 4.0 mi SW 10.4 mph - N/A Rain Heavy Rain
12:15 PM 62.6 °F - 55.4 °F 77% 30.14 in 10.0 mi WSW 15.0 mph 19.6 mph N/A   Overcast
12:35 PM 62.6 °F - 55.4 °F 77% 30.14 in 10.0 mi West 12.7 mph 17.3 mph N/A   Overcast
12:55 PM 62.6 °F - 57.2 °F 82% 30.13 in 10.0 mi WSW 9.2 mph - N/A   Overcast
1:15 PM 62.6 °F - 57.2 °F 82% 30.12 in 10.0 mi WSW 10.4 mph 17.3 mph N/A   Overcast
1:35 PM 64.4 °F - 55.4 °F 73% 30.11 in 10.0 mi WSW 9.2 mph - N/A   Overcast
1:55 PM 64.4 °F - 55.4 °F 73% 30.11 in 10.0 mi WSW 16.1 mph 20.7 mph N/A Rain Light Rain
2:15 PM 62.6 °F - 55.4 °F 77% 30.10 in 10.0 mi WSW 15.0 mph 23.0 mph N/A   Overcast
2:35 PM 62.6 °F - 55.4 °F 77% 30.09 in 10.0 mi WSW 13.8 mph 19.6 mph N/A   Overcast
2:55 PM 62.6 °F - 55.4 °F 77% 30.09 in 10.0 mi WSW 13.8 mph 21.9 mph N/A Rain Light Rain
3:15 PM 62.6 °F - 55.4 °F 77% 30.08 in 10.0 mi SW 10.4 mph 17.3 mph N/A Rain Light Rain
3:35 PM 60.8 °F - 55.4 °F 82% 30.08 in 5.0 mi WSW 10.4 mph 16.1 mph N/A Rain Light Rain
3:55 PM 62.6 °F - 55.4 °F 77% 30.09 in 10.0 mi West 9.2 mph - N/A Rain Light Rain
4:15 PM 62.6 °F - 55.4 °F 77% 30.09 in 10.0 mi WSW 9.2 mph - N/A   Overcast
4:35 PM 62.6 °F - 55.4 °F 77% 30.09 in 10.0 mi WSW 12.7 mph - N/A   Overcast
4:55 PM 62.6 °F - 55.4 °F 77% 30.09 in 10.0 mi WSW 9.2 mph - N/A Rain Light Rain
5:15 PM 62.6 °F - 55.4 °F 77% 30.09 in 10.0 mi WSW 8.1 mph - N/A   Overcast
5:55 PM 62.6 °F - 53.6 °F 72% 30.10 in 10.0 mi WSW 8.1 mph - N/A   Overcast
6:15 PM 62.6 °F - 53.6 °F 72% 30.10 in 10.0 mi WSW 9.2 mph - N/A   Overcast
6:35 PM 62.6 °F - 53.6 °F 72% 30.10 in 10.0 mi West 6.9 mph - N/A Rain Light Rain
6:55 PM 59.0 °F - 57.2 °F 94% 30.13 in 4.0 mi West 9.2 mph 23.0 mph N/A Rain Rain
7:15 PM 59.0 °F - 57.2 °F 94% 30.13 in 10.0 mi West 6.9 mph - N/A Rain Light Rain
7:35 PM 59.0 °F - 57.2 °F 94% 30.14 in 10.0 mi West 6.9 mph - N/A   Drizzle
7:55 PM 59.0 °F - 55.4 °F 88% 30.13 in 10.0 mi WSW 10.4 mph - N/A   Overcast
8:15 PM 59.0 °F - 55.4 °F 88% 30.14 in 10.0 mi West 9.2 mph - N/A   Overcast
8:35 PM 53.6 °F - 51.8 °F 94% 30.17 in 4.0 mi NNE 13.8 mph 24.2 mph N/A Rain Rain
8:55 PM 48.2 °F - 46.4 °F 93% 30.19 in 7.0 mi NNE 11.5 mph 23.0 mph N/A Rain Light Rain
9:15 PM 46.4 °F 41.1 °F 44.6 °F 93% 30.20 in 10.0 mi North 11.5 mph 18.4 mph N/A Rain Light Rain
9:35 PM 44.6 °F 39.7 °F 44.6 °F 100% 30.20 in 7.0 mi NNE 9.2 mph 17.3 mph N/A Rain Light Rain
9:55 PM 44.6 °F 38.4 °F 42.8 °F 93% 30.22 in 5.0 mi NE 12.7 mph 24.2 mph N/A Rain Rain
10:15 PM 42.8 °F 40.1 °F 41.0 °F 93% 30.23 in 7.0 mi NE 4.6 mph 16.1 mph N/A Rain Light Rain
10:35 PM 42.8 °F 38.0 °F 42.8 °F 100% 30.23 in 10.0 mi ENE 8.1 mph - N/A Rain Light Rain
10:55 PM 42.8 °F 37.5 °F 42.8 °F 100% 30.23 in 10.0 mi ENE 9.2 mph - N/A Rain Rain
11:15 PM 44.6 °F 39.7 °F 42.8 °F 93% 30.22 in 10.0 mi East 9.2 mph - N/A   Overcast
11:35 PM 42.8 °F 38.6 °F 41.0 °F 93% 30.23 in 10.0 mi ENE 6.9 mph - N/A   Light Drizzle
11:55 PM 42.8 °F 39.3 °F 41.0 °F 93% 30.23 in 10.0 mi ENE 5.8 mph - N/A Rain Light Rain